createdAt,value
2022-11-04T00:02:14.138Z,101292.78
2022-11-04T00:07:32.882Z,101289.28
2022-11-04T00:12:32.646Z,101284.78
2022-11-04T00:17:33.814Z,101286.78
2022-11-04T00:22:54.235Z,101282.41
2022-11-04T00:28:23.717Z,101281.16
2022-11-04T00:33:26.784Z,101276.75
2022-11-04T00:38:26.364Z,101273.25
2022-11-04T00:43:24.491Z,101265.72
2022-11-04T00:48:23.768Z,101264.75
2022-11-04T00:53:22.771Z,101263.13
2022-11-04T00:58:23.666Z,101256.94
2022-11-04T01:03:24.888Z,101254.88
2022-11-04T01:08:25.639Z,101260.97
2022-11-04T01:13:28.148Z,101261.59
2022-11-04T01:18:26.517Z,101253.53
2022-11-04T01:23:27.900Z,101253.44
2022-11-04T01:28:26.737Z,101244.63
2022-11-04T01:33:25.311Z,101238.53
2022-11-04T01:38:24.012Z,101237.75
2022-11-04T01:43:27.635Z,101227.59
2022-11-04T01:48:26.137Z,101215.69
2022-11-04T01:53:25.423Z,101202.22
2022-11-04T01:58:25.803Z,101199.25
2022-11-04T02:03:44.320Z,101197.97
2022-11-04T02:08:43.468Z,101195.69
2022-11-04T02:13:40.859Z,101185.13
2022-11-04T02:18:43.854Z,101182.97
2022-11-04T02:23:54.530Z,101181.00
2022-11-04T02:29:14.714Z,101180.28
2022-11-04T02:34:21.856Z,101176.63
2022-11-04T02:39:37.381Z,101170.09
2022-11-04T02:45:13.785Z,101171.03
2022-11-04T02:50:15.723Z,101186.41
2022-11-04T02:55:18.285Z,101175.34
2022-11-04T03:00:20.764Z,101172.13
2022-11-04T03:05:20.901Z,101165.13
2022-11-04T03:10:29.706Z,101166.22
2022-11-04T03:15:29.711Z,101161.19
2022-11-04T03:20:33.287Z,101158.00
2022-11-04T03:25:45.319Z,101156.22
2022-11-04T03:30:46.401Z,101151.19
2022-11-04T03:35:45.180Z,101153.50
2022-11-04T03:40:44.263Z,101140.72
2022-11-04T03:45:47.929Z,101132.44
2022-11-04T03:50:48.585Z,101117.75
2022-11-04T03:55:49.643Z,101115.47
2022-11-04T04:00:52.298Z,101119.38
2022-11-04T04:06:17.641Z,101129.53
2022-11-04T04:11:36.792Z,101133.44
2022-11-04T04:16:42.544Z,101145.50
2022-11-04T04:21:48.247Z,101150.19
2022-11-04T04:27:10.306Z,101140.44
2022-11-04T04:32:08.979Z,101150.06
2022-11-04T04:37:08.656Z,101149.25
2022-11-04T04:42:26.922Z,101145.28
2022-11-04T04:47:31.080Z,101140.22
2022-11-04T04:52:43.066Z,101139.91
2022-11-04T04:57:53.369Z,101146.84
2022-11-04T05:02:54.747Z,101138.72
2022-11-04T05:07:54.315Z,101138.56
2022-11-04T05:13:13.019Z,101140.44
2022-11-04T05:18:13.271Z,101145.44
2022-11-04T05:23:15.608Z,101147.09
2022-11-04T05:28:15.227Z,101168.28
2022-11-04T05:33:14.516Z,101169.13
2022-11-04T05:38:16.272Z,101166.22
2022-11-04T05:43:15.144Z,101166.03
2022-11-04T05:48:14.137Z,101170.78
2022-11-04T05:53:15.606Z,101162.59
2022-11-04T05:58:15.079Z,101165.47
2022-11-04T06:03:16.586Z,101164.94
2022-11-04T06:08:19.837Z,101151.44
2022-11-04T06:13:20.633Z,101161.59
2022-11-04T06:18:20.994Z,101158.16
2022-11-04T06:23:21.620Z,101166.13
2022-11-04T06:28:19.736Z,101173.94
2022-11-04T06:33:24.588Z,101168.84
2022-11-04T06:38:25.050Z,101161.44
2022-11-04T06:43:56.293Z,101153.03
2022-11-04T06:48:54.803Z,101153.59
2022-11-04T06:54:01.434Z,101156.03
2022-11-04T06:59:02.474Z,101154.59
2022-11-04T07:04:05.377Z,101147.50
2022-11-04T07:09:07.354Z,101144.09
2022-11-04T07:14:05.698Z,101139.41
2022-11-04T07:19:06.408Z,101125.84
2022-11-04T07:24:06.529Z,101128.13
2022-11-04T07:29:10.698Z,101124.84
2022-11-04T07:34:10.991Z,101113.72
2022-11-04T07:39:10.653Z,101111.44
2022-11-04T07:44:14.855Z,101103.56
2022-11-04T07:49:22.125Z,101097.97
2022-11-04T07:54:24.408Z,101103.69
2022-11-04T07:59:24.466Z,101100.28
2022-11-04T08:04:22.228Z,101100.06
2022-11-04T08:09:29.676Z,101094.13
2022-11-04T08:14:29.498Z,101087.41
2022-11-04T08:19:32.860Z,101091.97
2022-11-04T08:24:34.609Z,101083.31
2022-11-04T08:29:36.047Z,101072.59
2022-11-04T08:34:45.251Z,101064.75
2022-11-04T08:39:43.248Z,101067.94
2022-11-04T08:44:41.425Z,101053.41
2022-11-04T08:49:43.389Z,101055.84
2022-11-04T08:54:57.158Z,101051.78
2022-11-04T09:00:01.963Z,101039.97
2022-11-04T09:05:04.600Z,101037.84
2022-11-04T09:10:06.821Z,101025.69
2022-11-04T09:15:07.264Z,101031.06
2022-11-04T09:20:05.992Z,101022.63
2022-11-04T09:25:04.966Z,101019.94
2022-11-04T09:30:02.224Z,101018.66
2022-11-04T09:35:03.368Z,101006.22
2022-11-04T09:40:05.078Z,100996.56
2022-11-04T09:45:21.101Z,100991.13
2022-11-04T09:50:26.398Z,100984.22
2022-11-04T09:55:31.633Z,100980.66
2022-11-04T10:00:30.647Z,100976.44
2022-11-04T10:05:55.368Z,100965.72
2022-11-04T10:11:00.897Z,100957.41
2022-11-04T10:16:00.524Z,100940.16
2022-11-04T10:21:12.035Z,100926.69
2022-11-04T10:26:16.407Z,100914.50
2022-11-04T10:31:15.535Z,100906.72
2022-11-04T10:36:19.208Z,100898.09
2022-11-04T10:41:26.900Z,100895.22
2022-11-04T10:46:46.232Z,100885.75
2022-11-04T10:51:44.906Z,100873.59
2022-11-04T10:56:50.328Z,100862.47
2022-11-04T11:01:54.416Z,100865.88
2022-11-04T11:06:53.605Z,100865.66
2022-11-04T11:11:52.317Z,100848.50
2022-11-04T11:16:52.416Z,100839.75
2022-11-04T11:21:53.818Z,100839.75
2022-11-04T11:26:57.915Z,100827.69
2022-11-04T11:32:02.850Z,100823.19
2022-11-04T11:37:03.865Z,100814.09
2022-11-04T11:42:11.728Z,100799.31
2022-11-04T11:47:22.535Z,100800.06
2022-11-04T11:52:24.342Z,100794.16
2022-11-04T11:57:44.456Z,100793.09
2022-11-04T12:02:50.707Z,100783.66
2022-11-04T12:13:41.996Z,100775.69
2022-11-04T12:18:52.259Z,100774.16
2022-11-04T12:23:56.429Z,100758.88
2022-11-04T12:28:59.509Z,100751.56
2022-11-04T12:34:10.291Z,100746.56
2022-11-04T12:39:18.498Z,100750.22
2022-11-04T12:44:29.163Z,100741.59
2022-11-04T12:49:27.741Z,100740.97
2022-11-04T12:54:29.648Z,100733.97
2022-11-04T12:59:33.660Z,100741.78
2022-11-04T13:04:41.495Z,100724.84
2022-11-04T13:10:08.179Z,100712.66
2022-11-04T13:15:08.205Z,100715.09
2022-11-04T13:20:06.228Z,100697.09
2022-11-04T13:25:14.010Z,100681.94
2022-11-04T13:30:36.775Z,100683.50
2022-11-04T13:35:38.426Z,100682.31
2022-11-04T13:40:46.800Z,100695.91
2022-11-04T13:45:56.472Z,100690.69
2022-11-04T13:51:00.012Z,100682.50
2022-11-04T13:56:31.659Z,100678.19
2022-11-04T14:01:24.625Z,100685.16
2022-11-04T14:06:48.046Z,100684.47
2022-11-04T14:12:13.888Z,100678.91
2022-11-04T14:17:35.224Z,100676.84
2022-11-04T14:22:36.317Z,100663.56
2022-11-04T14:27:56.996Z,100670.75
2022-11-04T14:32:57.935Z,100658.94
2022-11-04T14:37:56.297Z,100651.19
2022-11-04T14:43:00.110Z,100651.41
2022-11-04T14:48:15.943Z,100637.91
2022-11-04T14:53:25.248Z,100641.63
2022-11-04T14:58:24.872Z,100643.31
2022-11-04T15:08:45.828Z,100637.50
2022-11-04T15:13:46.435Z,100635.72
2022-11-04T15:18:44.339Z,100634.25
2022-11-04T15:23:52.016Z,100630.00
2022-11-04T15:28:53.826Z,100637.22
2022-11-04T15:34:02.550Z,100630.78
2022-11-04T15:39:07.649Z,100629.63
2022-11-04T15:44:07.240Z,100626.66
2022-11-04T15:49:05.921Z,100630.56
2022-11-04T15:54:07.765Z,100629.97
2022-11-04T15:59:07.422Z,100624.13
2022-11-04T16:04:08.638Z,100628.03
2022-11-04T16:09:30.389Z,100637.41
2022-11-04T16:14:32.684Z,100637.22
2022-11-04T16:19:30.345Z,100644.16
2022-11-04T16:24:28.377Z,100638.91
2022-11-04T16:29:47.942Z,100639.09
2022-11-04T16:34:49.289Z,100641.59
2022-11-04T16:39:58.204Z,100640.75
2022-11-04T16:45:00.559Z,100649.25
2022-11-04T16:50:00.318Z,100647.84
2022-11-04T16:55:00.866Z,100644.56
2022-11-04T17:00:06.842Z,100630.22
2022-11-04T17:05:08.913Z,100637.09
2022-11-04T17:10:12.166Z,100644.19
2022-11-04T17:15:13.021Z,100646.88
2022-11-04T17:20:14.567Z,100636.13
2022-11-04T17:25:18.328Z,100628.81
2022-11-04T17:30:18.981Z,100619.50
2022-11-04T17:35:18.587Z,100625.38
2022-11-04T17:40:17.238Z,100625.38
2022-11-04T17:45:15.055Z,100625.19
2022-11-04T17:50:14.985Z,100619.28
2022-11-04T17:55:17.247Z,100616.88
2022-11-04T18:00:24.728Z,100614.00
2022-11-04T18:05:24.704Z,100613.03
2022-11-04T18:10:25.600Z,100614.63
2022-11-04T18:15:24.244Z,100614.22
2022-11-04T18:20:25.662Z,100606.75
2022-11-04T18:25:23.917Z,100606.75
2022-11-04T18:30:23.304Z,100612.22
2022-11-04T18:35:21.307Z,100611.00
2022-11-04T18:40:23.596Z,100620.50
2022-11-04T18:45:23.224Z,100616.88
2022-11-04T18:50:24.798Z,100618.78
2022-11-04T18:55:25.226Z,100606.03
2022-11-04T19:00:22.741Z,100607.09
2022-11-04T19:05:21.631Z,100611.94
2022-11-04T19:10:20.047Z,100612.75
2022-11-04T19:15:20.417Z,100606.03
2022-11-04T19:20:20.230Z,100594.53
2022-11-04T19:25:22.822Z,100599.59
2022-11-04T19:30:21.178Z,100607.09
2022-11-04T19:35:19.998Z,100609.25
2022-11-04T19:40:25.206Z,100627.19
2022-11-04T19:45:27.079Z,100625.09
2022-11-04T19:50:26.832Z,100627.34
2022-11-04T19:55:27.359Z,100628.09
2022-11-04T20:00:31.192Z,100631.66
2022-11-04T20:05:29.843Z,100627.28
2022-11-04T20:10:28.047Z,100636.97
2022-11-04T20:15:28.074Z,100632.44
2022-11-04T20:20:26.219Z,100638.22
2022-11-04T20:25:41.237Z,100640.72
2022-11-04T20:30:46.581Z,100643.31
2022-11-04T20:35:56.735Z,100635.88
2022-11-04T20:41:03.407Z,100640.00
2022-11-04T20:46:04.899Z,100627.31
2022-11-04T20:51:06.699Z,100638.50
2022-11-04T20:56:07.650Z,100631.94
2022-11-04T21:01:07.040Z,100624.66
2022-11-04T21:06:08.891Z,100634.78
2022-11-04T21:11:09.194Z,100628.53
2022-11-04T21:16:11.153Z,100632.63
2022-11-04T21:21:10.524Z,100626.34
2022-11-04T21:26:30.254Z,100619.00
2022-11-04T21:31:32.481Z,100611.84
2022-11-04T21:36:35.542Z,100622.63
2022-11-04T21:41:38.656Z,100622.53
2022-11-04T21:46:36.803Z,100618.44
2022-11-04T21:51:39.763Z,100618.09
2022-11-04T21:56:39.802Z,100612.41
2022-11-04T22:01:39.687Z,100618.38
2022-11-04T22:06:38.689Z,100615.56
2022-11-04T22:12:03.848Z,100616.63
2022-11-04T22:17:01.071Z,100609.16
2022-11-04T22:22:00.638Z,100602.75
2022-11-04T22:27:00.134Z,100596.56
2022-11-04T22:32:42.230Z,100598.44
2022-11-04T22:37:51.567Z,100589.63
2022-11-04T22:42:49.274Z,100583.38
2022-11-04T22:47:50.712Z,100576.56
2022-11-04T22:52:50.140Z,100566.53
2022-11-04T22:57:50.580Z,100564.91
2022-11-04T23:02:54.337Z,100570.50
2022-11-04T23:07:56.927Z,100564.91
2022-11-04T23:13:19.796Z,100553.88
2022-11-04T23:18:46.842Z,100567.09
2022-11-04T23:24:17.057Z,100567.97
2022-11-04T23:29:36.862Z,100569.34
2022-11-04T23:34:55.501Z,100574.31
2022-11-04T23:39:54.610Z,100573.06
2022-11-04T23:45:20.707Z,100579.97
2022-11-04T23:50:43.275Z,100588.34
2022-11-04T23:56:08.925Z,100589.53
